Time;durP1;ratioP1;P1;durP2;ratioP2;P2;SDS_P1;SDS_P2;PMS_P1;PMS_P2;Temp;Humidity;BMP_temperature;BMP_pressure;BME280_temperature;BME280_humidity;BME280_pressure;Samples;Min_cycle;Max_cycle;Signal;HPM_P1;HPM_P2
2021/03/31 00:00:35;;;;;;;;;36.00;34.00;;;;;28.26;57.23;98288.88;5082147;28;9310;-69
2021/03/31 00:03:09;;;;;;;;;32.67;31.67;;;;;28.28;56.37;98297.41;5080560;28;9314;-69
2021/03/31 00:05:37;;;;;;;;;42.25;37.00;;;;;28.30;56.12;98299.72;5082517;28;9396;-69
2021/03/31 00:08:06;;;;;;;;;33.67;32.00;;;;;28.35;56.57;98302.00;5077565;28;9901;-69
2021/03/31 00:10:46;;;;;;;;;34.33;32.33;;;;;28.38;55.52;98304.72;5079781;28;9157;-69
2021/03/31 00:13:15;;;;;;;;;39.25;35.25;;;;;28.41;55.95;98308.56;5082717;28;9388;-68
2021/03/31 00:15:43;;;;;;;;;39.00;34.67;;;;;28.42;56.06;98313.59;5080668;28;9613;-68
2021/03/31 00:18:14;;;;;;;;;38.67;35.67;;;;;28.44;55.68;98321.34;5081722;28;10020;-67
2021/03/31 00:20:43;;;;;;;;;40.67;34.00;;;;;28.44;56.72;98324.06;5079344;28;9336;-68
2021/03/31 00:23:14;;;;;;;;;14.00;13.00;;;;;28.43;56.06;98323.28;5082104;28;10026;-68
2021/03/31 00:25:43;;;;;;;;;47.50;40.00;;;;;28.39;55.29;98329.91;5084182;28;9233;-68
2021/03/31 00:28:12;;;;;;;;;44.25;36.75;;;;;28.45;56.76;98328.31;5067406;28;9515;-68
2021/03/31 00:30:42;;;;;;;;;43.75;36.25;;;;;28.39;56.46;98330.66;5083880;28;9618;-69
2021/03/31 00:33:12;;;;;;;;;43.00;36.50;;;;;28.46;56.35;98338.00;5092262;28;9435;-68
2021/03/31 00:35:40;;;;;;;;;45.00;37.50;;;;;28.39;56.07;98332.59;5084353;28;9518;-68
2021/03/31 00:38:10;;;;;;;;;45.33;38.00;;;;;28.50;55.82;98349.63;5084921;28;9684;-69
2021/03/31 00:40:42;;;;;;;;;43.67;38.67;;;;;28.51;56.36;98362.78;5094981;28;11200;-70
2021/03/31 00:43:11;;;;;;;;;41.25;36.00;;;;;28.52;55.97;98358.13;5097275;28;10213;-69
2021/03/31 00:45:40;;;;;;;;;49.75;41.75;;;;;28.52;55.55;98364.31;5093910;28;9403;-69
2021/03/31 00:48:14;;;;;;;;;47.00;39.00;;;;;28.53;55.59;98367.81;5079549;28;9630;-68
2021/03/31 00:50:45;;;;;;;;;37.67;34.67;;;;;28.55;56.45;98382.53;5081204;28;9540;-69
2021/03/31 00:53:21;;;;;;;;;40.00;36.67;;;;;28.02;56.22;98295.16;5062876;28;9454;-67
2021/03/31 00:55:51;;;;;;;;;44.00;37.75;;;;;28.30;55.42;98341.19;5082998;28;9451;-67
2021/03/31 00:58:20;;;;;;;;;34.67;32.67;;;;;28.54;55.84;98375.56;5081815;28;9369;-68
2021/03/31 01:00:49;;;;;;;;;42.00;36.00;;;;;28.56;55.52;98378.66;5081441;28;9493;-70
2021/03/31 01:03:19;;;;;;;;;41.00;35.00;;;;;28.53;55.19;98374.00;5082159;28;9281;-68
2021/03/31 01:05:47;;;;;;;;;39.67;34.00;;;;;28.38;55.09;98350.81;5080433;28;9403;-72
2021/03/31 01:08:16;;;;;;;;;45.25;38.00;;;;;28.52;55.26;98372.47;5080983;28;9464;-70
2021/03/31 01:10:47;;;;;;;;;43.67;38.33;;;;;28.69;54.74;98400.66;5078674;28;9709;-71
2021/03/31 01:13:33;;;;;;;;;43.33;39.00;;;;;28.73;54.16;98403.34;5080839;28;9374;-69
2021/03/31 01:16:33;;;;;;;;;44.50;37.50;;;;;28.75;53.98;98403.72;5081100;28;9445;-67
2021/03/31 01:19:27;;;;;;;;;49.25;40.75;;;;;28.82;54.39;98411.84;5067399;28;9523;-69
2021/03/31 01:22:27;;;;;;;;;42.00;35.75;;;;;28.87;53.66;98416.88;5079443;28;9616;-70
2021/03/31 01:25:16;;;;;;;;;44.00;38.50;;;;;28.90;54.57;98422.28;5079825;28;9384;-70
2021/03/31 01:28:04;;;;;;;;;44.50;38.75;;;;;28.95;55.45;98428.47;5083237;28;9843;-70
2021/03/31 01:30:58;;;;;;;;;52.50;43.50;;;;;28.99;55.02;98429.22;5083141;28;9517;-69
2021/03/31 01:33:58;;;;;;;;;44.50;38.00;;;;;29.03;55.28;98425.31;5088715;28;9569;-69
2021/03/31 01:36:29;;;;;;;;;44.75;37.75;;;;;29.00;54.53;98423.41;5075705;28;9731;-69
2021/03/31 01:39:04;;;;;;;;;47.00;40.25;;;;;28.90;54.86;98406.00;5071305;28;9577;-69
2021/03/31 01:41:35;;;;;;;;;47.25;41.00;;;;;29.07;55.03;98431.50;5072209;28;9680;-69
2021/03/31 01:44:09;;;;;;;;;45.75;39.00;;;;;29.02;54.37;98412.91;5072645;28;9688;-69
2021/03/31 01:46:40;;;;;;;;;50.50;43.00;;;;;29.14;54.27;98430.69;5072616;28;9899;-71
2021/03/31 01:49:09;;;;;;;;;46.50;40.00;;;;;29.17;53.53;98438.03;5098743;28;9764;-72
2021/03/31 01:51:40;;;;;;;;;44.75;38.25;;;;;29.10;54.15;98422.56;5072953;28;9686;-67
2021/03/31 01:54:10;;;;;;;;;42.00;36.50;;;;;29.24;53.95;98438.00;5104743;28;9700;-71
2021/03/31 01:56:39;;;;;;;;;47.00;40.00;;;;;29.26;53.78;98440.31;5095364;28;9686;-70
2021/03/31 01:59:09;;;;;;;;;46.50;40.25;;;;;29.27;53.62;98431.78;5106710;28;9797;-70
2021/03/31 02:01:37;;;;;;;;;50.00;38.75;;;;;29.31;53.74;98440.66;5092239;28;9698;-69
2021/03/31 02:04:06;;;;;;;;;49.00;41.75;;;;;29.32;53.88;98439.50;5091715;28;9646;-69
2021/03/31 02:06:35;;;;;;;;;46.25;40.00;;;;;29.34;53.84;98439.88;5092359;28;9616;-68
2021/03/31 02:09:05;;;;;;;;;56.75;43.75;;;;;29.37;53.96;98439.06;5092692;28;9757;-68
2021/03/31 02:11:34;;;;;;;;;48.75;41.00;;;;;29.24;54.08;98421.69;5092377;28;9929;-69
2021/03/31 02:14:06;;;;;;;;;45.50;37.25;;;;;29.44;53.93;98444.50;5091684;28;9931;-70
2021/03/31 02:16:36;;;;;;;;;46.00;39.00;;;;;29.48;53.64;98455.34;5092491;28;9561;-72
2021/03/31 02:19:06;;;;;;;;;46.33;40.00;;;;;29.42;53.83;98443.34;5092552;28;9436;-70
2021/03/31 02:21:35;;;;;;;;;40.00;36.00;;;;;29.56;53.62;98451.38;5092066;28;9470;-71
2021/03/31 02:24:05;;;;;;;;;48.00;41.33;;;;;29.53;53.12;98446.75;5091722;28;10181;-71
2021/03/31 02:26:33;;;;;;;;;48.67;40.00;;;;;29.51;54.14;98447.16;5092030;28;9469;-69
2021/03/31 02:29:02;;;;;;;;;47.75;38.50;;;;;29.60;53.20;98451.38;5092228;28;9237;-71
2021/03/31 02:31:32;;;;;;;;;46.67;41.00;;;;;29.62;52.64;98457.16;5092357;28;9600;-69
2021/03/31 02:34:02;;;;;;;;;49.33;39.00;;;;;29.76;52.07;98460.53;5092022;28;9483;-71
2021/03/31 02:36:39;;;;;;;;;47.00;40.00;;;;;29.79;52.55;98461.69;5091699;28;9253;-70
2021/03/31 02:39:10;;;;;;;;;43.33;38.00;;;;;29.77;52.77;98455.88;5091817;28;9436;-71
2021/03/31 02:41:44;;;;;;;;;49.50;42.50;;;;;29.88;52.88;98463.94;5091891;28;9314;-69
2021/03/31 02:44:13;;;;;;;;;46.67;39.00;;;;;29.77;52.51;98440.34;5091255;28;9544;-68
2021/03/31 02:46:44;;;;;;;;;45.75;39.00;;;;;29.96;53.24;98466.16;5091887;28;10103;-67
2021/03/31 02:49:13;;;;;;;;;46.00;39.50;;;;;30.03;53.05;98457.19;5092780;28;9450;-67
2021/03/31 02:51:43;;;;;;;;;47.25;40.75;;;;;30.07;53.02;98464.16;5092632;28;9732;-67
2021/03/31 02:54:13;;;;;;;;;45.25;39.00;;;;;30.01;52.12;98448.66;5092869;28;9524;-68
2021/03/31 02:56:43;;;;;;;;;0.67;0.33;;;;;30.07;52.29;98447.84;5092917;28;9556;-67
2021/03/31 02:59:13;;;;;;;;;44.75;38.50;;;;;30.23;51.73;98466.31;5093408;28;9409;-70
2021/03/31 03:27:26;;;;;;;;;42.00;37.00;;;;;30.81;50.15;98451.69;6177621;22;1819576;-74
2021/03/31 03:29:55;;;;;;;;;47.25;40.75;;;;;30.86;50.01;98450.47;6253584;22;8795;-72
2021/03/31 03:32:24;;;;;;;;;48.00;40.50;;;;;30.96;50.13;98451.50;6281378;22;9482;-72
2021/03/31 03:34:54;;;;;;;;;50.00;42.50;;;;;31.00;50.85;98441.31;6281396;22;9415;-72
2021/03/31 03:37:23;;;;;;;;;53.00;44.00;;;;;31.07;50.44;98444.72;6280964;22;9743;-72
2021/03/31 03:39:51;;;;;;;;;59.25;47.25;;;;;31.15;50.04;98448.16;6281101;22;10428;-76
2021/03/31 03:42:20;;;;;;;;;56.00;45.50;;;;;31.19;49.78;98448.88;6255138;22;10099;-72
2021/03/31 03:44:48;;;;;;;;;56.00;46.00;;;;;31.23;49.39;98441.38;6282506;22;9569;-74
2021/03/31 03:47:18;;;;;;;;;57.75;47.00;;;;;31.27;49.40;98439.38;6282830;22;9828;-73
2021/03/31 03:49:46;;;;;;;;;52.50;44.00;;;;;31.34;50.01;98443.94;6282871;22;10174;-74
2021/03/31 03:52:17;;;;;;;;;48.25;41.00;;;;;31.34;48.99;98427.59;6282838;22;9522;-71
2021/03/31 03:54:56;;;;;;;;;51.33;43.33;;;;;31.47;48.90;98450.38;6282890;22;9435;-74
2021/03/31 03:57:27;;;;;;;;;53.67;44.67;;;;;31.54;49.51;98446.75;6282863;22;9284;-72
2021/03/31 03:59:56;;;;;;;;;54.33;44.33;;;;;31.59;49.50;98436.16;6282389;22;9308;-72
2021/03/31 04:02:25;;;;;;;;;61.50;49.25;;;;;31.66;48.93;98438.75;6282427;22;9357;-73
2021/03/31 04:04:53;;;;;;;;;49.67;42.00;;;;;31.74;48.79;98434.00;6282593;22;9736;-72
2021/03/31 04:07:21;;;;;;;;;52.25;43.00;;;;;31.83;48.38;98436.19;6282735;22;9257;-72
2021/03/31 04:09:51;;;;;;;;;51.25;44.25;;;;;31.87;48.68;98432.19;6282227;22;9727;-72
2021/03/31 04:12:19;;;;;;;;;50.67;41.00;;;;;31.97;46.73;98431.25;6281595;22;10163;-74
2021/03/31 04:14:48;;;;;;;;;47.00;40.33;;;;;32.04;46.32;98419.44;6276961;22;9727;-77
2021/03/31 04:17:18;;;;;;;;;49.00;40.00;;;;;32.14;46.33;98423.91;6275887;22;9129;-76
2021/03/31 04:19:49;;;;;;;;;48.00;40.00;;;;;32.18;45.40;98410.97;6277654;22;9297;-78
2021/03/31 04:22:21;;;;;;;;;49.33;41.33;;;;;32.29;45.96;98410.81;6275520;22;9028;-76
2021/03/31 04:24:50;;;;;;;;;55.67;47.00;;;;;32.36;45.95;98400.50;6275325;22;9226;-75
2021/03/31 04:27:20;;;;;;;;;52.67;44.00;;;;;32.40;46.95;98392.25;6289615;22;9225;-75
2021/03/31 04:29:50;;;;;;;;;49.67;42.00;;;;;32.50;45.77;98390.50;6303887;22;8950;-74
2021/03/31 04:32:19;;;;;;;;;48.33;41.00;;;;;32.57;45.38;98393.81;6305520;22;9208;-75
2021/03/31 04:34:49;;;;;;;;;47.67;40.00;;;;;32.64;44.56;98387.44;6304156;22;9059;-73
2021/03/31 04:37:17;;;;;;;;;46.00;39.67;;;;;32.68;44.29;98379.94;6304832;22;8928;-76
2021/03/31 04:39:45;;;;;;;;;52.33;43.67;;;;;32.75;45.02;98379.78;6305114;22;8940;-74
2021/03/31 04:42:14;;;;;;;;;43.25;37.25;;;;;32.78;45.13;98362.56;6304843;22;8965;-75
2021/03/31 04:44:43;;;;;;;;;47.25;38.00;;;;;32.87;45.35;98368.22;6301739;22;8809;-74
2021/03/31 04:47:11;;;;;;;;;47.00;39.33;;;;;32.92;44.91;98364.97;6304452;22;8829;-73
2021/03/31 04:49:39;;;;;;;;;51.00;42.33;;;;;32.96;43.67;98354.72;6304560;22;9074;-73
2021/03/31 04:52:08;;;;;;;;;54.50;45.00;;;;;33.06;44.26;98355.69;6307392;22;9635;-75
2021/03/31 04:54:36;;;;;;;;;45.50;40.25;;;;;33.13;44.48;98354.75;6309865;22;8803;-75
2021/03/31 04:57:05;;;;;;;;;32.50;31.00;;;;;33.17;45.05;98345.25;6306973;22;8815;-75
2021/03/31 04:59:33;;;;;;;;;45.25;39.75;;;;;33.20;45.02;98338.94;6323437;22;8954;-79
2021/03/31 05:02:02;;;;;;;;;51.50;41.75;;;;;33.34;44.15;98346.06;6312682;22;9515;-76
2021/03/31 05:04:31;;;;;;;;;47.50;41.00;;;;;33.42;44.53;98339.22;6311559;22;8811;-75
2021/03/31 05:06:59;;;;;;;;;49.25;42.25;;;;;33.47;44.19;98330.47;6308620;22;8831;-76
2021/03/31 05:09:27;;;;;;;;;49.25;41.00;;;;;33.41;43.98;98310.31;6308012;22;9596;-75
2021/03/31 05:11:55;;;;;;;;;47.50;41.00;;;;;33.61;43.87;98323.88;6313859;22;8799;-73
2021/03/31 05:14:23;;;;;;;;;47.75;40.50;;;;;33.64;43.92;98306.59;6305538;22;8811;-74
2021/03/31 05:16:51;;;;;;;;;49.50;42.50;;;;;33.75;43.17;98309.03;6304034;22;8910;-75
2021/03/31 05:19:20;;;;;;;;;48.75;41.00;;;;;33.79;43.60;98296.03;6299867;22;8849;-75
2021/03/31 05:21:48;;;;;;;;;48.25;41.25;;;;;33.81;43.52;98285.44;6301594;22;8834;-74
2021/03/31 05:24:16;;;;;;;;;45.50;39.25;;;;;33.88;42.76;98296.19;6316176;22;8803;-80
2021/03/31 05:26:45;;;;;;;;;43.75;38.50;;;;;33.92;41.20;98286.66;6312253;22;8802;-75
2021/03/31 05:29:22;;;;;;;;;46.50;39.00;;;;;34.04;42.97;98285.94;6306227;22;8819;-80
2021/03/31 05:31:50;;;;;;;;;50.00;41.25;;;;;34.10;42.99;98277.19;6309532;22;8787;-83
2021/03/31 05:34:19;;;;;;;;;43.25;38.50;;;;;34.11;42.02;98262.28;6318409;22;8795;-79
2021/03/31 05:36:48;;;;;;;;;42.25;37.75;;;;;34.27;42.29;98262.97;6324655;22;8921;-78
2021/03/31 05:39:25;;;;;;;;;41.00;36.00;;;;;34.35;42.42;98258.06;6303924;22;8787;-83
2021/03/31 05:41:57;;;;;;;;;45.50;38.75;;;;;34.45;41.58;98246.00;6306898;22;8805;-80
2021/03/31 05:44:26;;;;;;;;;43.25;35.50;;;;;34.48;40.11;98233.41;6302264;22;8791;-80
2021/03/31 05:46:55;;;;;;;;;44.25;39.00;;;;;34.64;42.24;98234.06;6302266;22;8787;-75
2021/03/31 05:49:26;;;;;;;;;39.00;34.50;;;;;34.74;40.51;98228.69;6302604;22;8884;-77
2021/03/31 05:51:54;;;;;;;;;41.50;37.75;;;;;34.83;41.12;98226.81;6301724;22;8857;-81
2021/03/31 05:54:23;;;;;;;;;43.50;37.00;;;;;34.91;39.21;98214.41;6308407;22;8807;-82
2021/03/31 05:56:53;;;;;;;;;44.25;37.50;;;;;34.96;40.92;98216.59;6304878;22;8810;-77
2021/03/31 05:59:21;;;;;;;;;39.00;35.25;;;;;35.03;39.30;98215.59;6303527;22;8806;-84
2021/03/31 06:01:50;;;;;;;;;43.75;37.75;;;;;35.09;39.51;98204.81;6300826;22;8830;-81
2021/03/31 06:04:21;;;;;;;;;22.00;22.00;;;;;35.18;39.49;98193.91;6305652;22;8803;-81
2021/03/31 06:06:49;;;;;;;;;37.00;32.75;;;;;35.27;39.98;98191.22;6304607;22;8806;-80
2021/03/31 06:09:18;;;;;;;;;41.25;37.50;;;;;35.32;41.04;98182.47;6304148;22;8921;-76
2021/03/31 06:11:53;;;;;;;;;41.25;35.75;;;;;35.34;38.82;98173.78;6304075;22;8811;-83
2021/03/31 06:14:37;;;;;;;;;41.75;36.00;;;;;35.46;38.01;98172.94;6303323;22;8837;-77
2021/03/31 06:17:11;;;;;;;;;42.75;37.75;;;;;35.53;39.88;98167.22;6301426;22;8833;-76
2021/03/31 06:19:42;;;;;;;;;44.00;38.50;;;;;35.58;38.62;98161.13;6302485;22;8811;-76
2021/03/31 06:22:36;;;;;;;;;48.00;39.25;;;;;35.66;39.05;98161.63;6302408;22;8864;-79
2021/03/31 06:25:18;;;;;;;;;48.50;40.75;;;;;35.69;38.77;98149.75;6303855;22;8865;-76
2021/03/31 06:27:58;;;;;;;;;40.75;36.00;;;;;35.79;40.47;98146.66;6304045;22;8913;-77
2021/03/31 06:30:28;;;;;;;;;42.75;36.50;;;;;35.76;39.73;98133.78;6304296;22;8795;-74
2021/03/31 06:32:58;;;;;;;;;43.75;35.00;;;;;35.79;39.29;98132.13;6303643;22;9551;-75
2021/03/31 06:35:30;;;;;;;;;43.25;37.50;;;;;35.88;37.93;98121.97;6301324;22;8819;-76
2021/03/31 06:38:11;;;;;;;;;48.50;39.25;;;;;35.96;38.73;98119.72;6302042;22;8828;-75
2021/03/31 06:40:45;;;;;;;;;47.00;39.50;;;;;36.04;40.15;98110.00;6302056;22;8827;-75
2021/03/31 06:43:26;;;;;;;;;39.50;35.50;;;;;36.11;41.08;98104.22;6302520;22;8803;-73
2021/03/31 06:46:07;;;;;;;;;42.75;37.25;;;;;36.16;37.79;98089.13;6302410;22;8930;-73
2021/03/31 06:48:43;;;;;;;;;44.25;37.25;;;;;36.34;36.40;98102.16;6302522;22;8897;-73
2021/03/31 06:51:25;;;;;;;;;39.75;36.00;;;;;36.41;37.98;98090.84;6300918;22;8791;-79
2021/03/31 06:53:54;;;;;;;;;45.50;38.50;;;;;36.48;37.81;98085.06;6301357;22;8905;-74
2021/03/31 06:56:30;;;;;;;;;44.75;39.25;;;;;36.51;36.18;98075.91;6301868;22;8795;-76
2021/03/31 06:59:00;;;;;;;;;42.00;35.00;;;;;36.62;36.69;98067.97;6302844;22;8810;-74
2021/03/31 07:01:32;;;;;;;;;42.25;36.50;;;;;36.72;37.92;98068.72;6302562;22;8838;-77
2021/03/31 07:04:03;;;;;;;;;41.75;36.50;;;;;36.77;35.81;98065.38;6304018;22;8834;-80
2021/03/31 07:06:32;;;;;;;;;42.50;35.00;;;;;36.81;38.01;98061.25;6304266;22;8856;-78
2021/03/31 07:09:18;;;;;;;;;39.00;34.75;;;;;36.86;37.24;98060.66;6302760;22;9512;-76
2021/03/31 07:11:46;;;;;;;;;41.25;36.00;;;;;36.87;36.68;98055.91;6302026;22;8841;-76
2021/03/31 07:14:16;;;;;;;;;39.75;34.50;;;;;36.92;36.57;98053.31;6303454;22;8787;-73
2021/03/31 07:16:46;;;;;;;;;42.00;36.25;;;;;36.85;35.73;98028.13;6300985;22;8795;-75
2021/03/31 07:19:17;;;;;;;;;43.25;36.25;;;;;36.85;37.63;98017.88;6301440;22;8973;-73
2021/03/31 07:22:07;;;;;;;;;40.50;36.75;;;;;36.79;34.73;98003.25;6302700;22;8840;-74
2021/03/31 07:24:35;;;;;;;;;40.00;35.00;;;;;37.04;38.19;98039.84;6302176;22;8787;-75
2021/03/31 07:27:06;;;;;;;;;35.50;33.50;;;;;37.03;34.93;98021.81;6302585;22;8853;-75
2021/03/31 07:29:40;;;;;;;;;45.00;39.75;;;;;36.89;37.79;97996.50;6301619;22;8829;-76
2021/03/31 07:32:09;;;;;;;;;46.50;38.25;;;;;37.13;35.57;98015.06;6303887;22;8810;-75
2021/03/31 07:34:39;;;;;;;;;39.25;35.25;;;;;37.17;37.41;98004.66;6303989;22;8917;-74
2021/03/31 07:37:07;;;;;;;;;42.50;37.75;;;;;37.20;35.56;98003.75;6304508;22;8799;-74
2021/03/31 07:39:36;;;;;;;;;37.75;34.50;;;;;37.25;32.23;97989.41;6302424;22;8882;-76
2021/03/31 07:42:09;;;;;;;;;35.75;33.25;;;;;37.38;33.27;98000.19;6303790;22;8803;-76
2021/03/31 07:44:39;;;;;;;;;41.50;35.25;;;;;37.45;35.52;97991.59;6303457;22;8803;-76
2021/03/31 07:47:08;;;;;;;;;28.00;26.50;;;;;37.44;34.35;97982.59;6303900;22;8799;-76
2021/03/31 07:49:37;;;;;;;;;36.25;34.50;;;;;37.51;36.39;97981.47;6305313;22;8826;-76
2021/03/31 07:52:09;;;;;;;;;37.50;34.00;;;;;37.53;34.63;97979.03;6303526;22;8811;-77
2021/03/31 07:54:37;;;;;;;;;35.25;33.25;;;;;37.56;37.87;97972.59;6304987;22;8806;-73
2021/03/31 07:57:26;;;;;;;;;32.25;31.75;;;;;37.42;34.82;97938.28;6276353;22;8835;-74
2021/03/31 07:59:55;;;;;;;;;40.50;35.25;;;;;37.64;33.81;97962.75;6304393;22;8832;-74
2021/03/31 08:02:27;;;;;;;;;29.33;29.33;;;;;37.71;35.03;97964.41;6300838;22;8799;-78
2021/03/31 08:05:08;;;;;;;;;32.50;31.50;;;;;37.74;35.21;97955.22;6304254;22;8815;-74
2021/03/31 08:07:37;;;;;;;;;30.25;30.00;;;;;37.75;34.08;97949.22;6304311;22;8872;-76
2021/03/31 08:10:31;;;;;;;;;30.50;30.25;;;;;37.79;34.62;97954.56;6304295;22;8803;-75
2021/03/31 08:13:25;;;;;;;;;29.75;29.50;;;;;37.79;33.69;97955.31;6302416;22;8827;-74
2021/03/31 08:15:55;;;;;;;;;33.25;31.50;;;;;37.74;34.37;97938.69;6303986;22;8919;-73
2021/03/31 08:18:24;;;;;;;;;28.50;28.50;;;;;37.79;35.06;97951.81;6303859;22;8896;-76
2021/03/31 08:20:54;;;;;;;;;33.00;31.50;;;;;37.77;34.67;97948.75;6304397;22;8850;-75
2021/03/31 08:23:45;;;;;;;;;31.00;29.60;;;;;37.78;33.65;97953.81;6304305;22;8809;-75
2021/03/31 08:26:31;;;;;;;;;28.20;28.20;;;;;37.78;35.37;97950.28;6303544;22;8887;-74
2021/03/31 08:29:02;;;;;;;;;30.20;28.60;;;;;37.76;35.69;97947.25;6304210;22;8818;-73
2021/03/31 08:31:37;;;;;;;;;31.25;29.25;;;;;37.72;32.89;97941.91;6303565;22;8810;-75
2021/03/31 08:34:09;;;;;;;;;29.75;29.75;;;;;37.73;32.60;97939.91;6303836;22;8806;-74
2021/03/31 08:36:43;;;;;;;;;32.00;30.00;;;;;37.72;34.73;97933.66;6303314;22;8799;-74
2021/03/31 08:39:13;;;;;;;;;30.75;29.75;;;;;37.70;35.03;97936.16;6305350;22;8802;-74
2021/03/31 08:41:44;;;;;;;;;35.50;32.75;;;;;37.69;34.46;97931.88;6303768;22;8803;-76
2021/03/31 08:44:24;;;;;;;;;27.20;27.00;;;;;37.75;33.71;97937.47;6304458;22;8787;-76
2021/03/31 08:46:54;;;;;;;;;30.80;29.80;;;;;37.71;34.27;97925.88;6305152;22;8791;-76
2021/03/31 08:49:31;;;;;;;;;27.40;27.20;;;;;37.69;34.68;97928.34;6304826;22;8901;-79
2021/03/31 08:52:04;;;;;;;;;28.00;27.80;;;;;37.60;34.09;97920.13;6306760;22;8815;-79
2021/03/31 08:54:37;;;;;;;;;26.00;26.00;;;;;37.61;34.02;97927.16;6305101;22;8841;-79
2021/03/31 08:57:09;;;;;;;;;28.00;28.00;;;;;37.52;35.31;97920.47;6305512;22;8795;-78
2021/03/31 08:59:41;;;;;;;;;33.00;32.00;;;;;37.45;36.18;97920.06;6313456;22;8822;-79
2021/03/31 09:02:12;;;;;;;;;34.00;31.25;;;;;37.35;34.88;97918.59;6305705;22;8896;-76
2021/03/31 09:05:00;;;;;;;;;28.80;27.80;;;;;37.33;34.05;97932.06;6302001;22;9403;-76
2021/03/31 09:07:29;;;;;;;;;24.80;24.80;;;;;37.26;35.57;97929.66;6301480;22;8798;-75
2021/03/31 09:10:01;;;;;;;;;26.00;26.00;;;;;37.19;35.48;97930.72;6301618;22;8922;-80
2021/03/31 09:12:31;;;;;;;;;25.40;25.40;;;;;37.06;35.08;97927.41;6302441;22;8818;-78
2021/03/31 09:15:04;;;;;;;;;27.50;26.50;;;;;37.02;38.97;97926.81;6301995;22;8921;-77
2021/03/31 09:17:34;;;;;;;;;31.00;28.00;;;;;36.80;35.03;97921.53;6303373;22;8807;-79
2021/03/31 09:20:12;;;;;;;;;28.80;25.80;;;;;36.65;36.23;97924.16;6304048;22;8788;-82
2021/03/31 09:22:43;;;;;;;;;31.50;30.75;;;;;36.48;36.17;97914.72;6304886;22;8823;-78
2021/03/31 09:25:13;;;;;;;;;11.50;10.50;;;;;36.53;35.02;97922.34;6302830;22;8799;-81
2021/03/31 09:28:04;;;;;;;;;26.25;26.25;;;;;36.46;35.82;97914.44;6301641;22;8814;-84
2021/03/31 09:30:38;;;;;;;;;33.00;30.00;;;;;36.28;36.69;97895.25;6302430;22;8913;-81
2021/03/31 09:33:15;;;;;;;;;30.50;30.25;;;;;36.40;36.41;97921.78;6301687;22;8818;-75
2021/03/31 09:35:46;;;;;;;;;28.00;28.00;;;;;36.25;36.49;97916.91;6301817;22;9590;-78
2021/03/31 09:38:26;;;;;;;;;33.75;32.75;;;;;36.25;36.80;97908.66;6304502;22;8823;-82
2021/03/31 09:41:03;;;;;;;;;31.75;31.00;;;;;36.05;36.36;97886.41;6300491;22;8787;-75
2021/03/31 09:43:36;;;;;;;;;29.75;29.00;;;;;36.12;36.07;97910.81;6303631;22;9462;-80
2021/03/31 09:46:07;;;;;;;;;27.25;27.00;;;;;36.14;36.07;97913.09;6302808;22;9496;-75
2021/03/31 09:48:36;;;;;;;;;29.75;29.75;;;;;36.14;36.28;97921.31;6303912;22;8917;-77
2021/03/31 09:51:13;;;;;;;;;29.75;28.00;;;;;36.16;37.80;97927.88;6305806;22;9544;-80
2021/03/31 09:53:46;;;;;;;;;27.00;27.00;;;;;36.07;35.97;97921.63;6304950;22;8909;-82
2021/03/31 09:56:15;;;;;;;;;14.75;14.25;;;;;36.04;36.12;97922.53;6306443;22;8823;-77
2021/03/31 09:58:47;;;;;;;;;29.75;29.75;;;;;36.03;35.70;97919.03;6307322;22;8791;-80
2021/03/31 10:01:17;;;;;;;;;28.25;27.50;;;;;36.05;36.05;97935.81;6314445;22;8787;-81
2021/03/31 10:03:47;;;;;;;;;27.00;27.00;;;;;36.00;35.84;97921.94;6324100;22;8791;-80
2021/03/31 10:06:26;;;;;;;;;34.00;31.25;;;;;36.03;35.83;97932.00;6327830;22;8844;-82
2021/03/31 10:09:17;;;;;;;;;29.25;29.25;;;;;35.97;36.88;97929.09;6321813;22;8807;-76
2021/03/31 10:11:46;;;;;;;;;27.00;27.00;;;;;35.97;37.10;97937.34;6325645;22;8801;-80
2021/03/31 10:14:24;;;;;;;;;27.50;25.00;;;;;35.94;36.95;97928.03;6306072;22;8811;-78
2021/03/31 10:16:53;;;;;;;;;24.33;24.33;;;;;35.91;35.69;97931.69;6309811;22;8900;-84
2021/03/31 10:19:25;;;;;;;;;25.25;24.50;;;;;35.89;37.69;97936.88;6307209;22;8803;-85
2021/03/31 10:22:08;;;;;;;;;25.75;24.75;;;;;35.85;36.15;97924.53;6306816;22;8810;-78
2021/03/31 10:24:57;;;;;;;;;33.50;32.00;;;;;35.82;35.12;97926.19;6307572;22;8900;-82
2021/03/31 10:27:47;;;;;;;;;26.75;26.75;;;;;35.66;36.16;97918.22;6306089;22;8841;-83
2021/03/31 10:30:35;;;;;;;;;34.25;32.25;;;;;35.69;35.61;97922.03;6305653;22;8823;-81
2021/03/31 10:33:23;;;;;;;;;27.50;27.50;;;;;35.49;37.24;97904.00;6306917;22;9635;-77
2021/03/31 10:35:58;;;;;;;;;31.00;28.75;;;;;35.63;36.16;97935.59;6306487;22;8825;-79
2021/03/31 10:38:47;;;;;;;;;28.50;28.25;;;;;35.63;36.78;97932.84;6305835;22;8795;-79
2021/03/31 10:49:30;;;;;;;;;29.50;28.00;;;;;35.43;36.92;97930.50;6307162;22;8901;-77
2021/03/31 10:52:03;;;;;;;;;29.75;28.75;;;;;35.42;36.72;97939.97;6305437;22;8811;-75
2021/03/31 10:54:31;;;;;;;;;28.25;28.25;;;;;35.35;36.65;97936.72;6304996;22;8917;-77
2021/03/31 10:57:12;;;;;;;;;29.75;29.50;;;;;35.31;36.57;97945.88;6305784;22;9618;-76
2021/03/31 10:59:41;;;;;;;;;27.25;27.25;;;;;35.25;36.88;97944.13;6305289;22;8819;-77
2021/03/31 11:02:11;;;;;;;;;24.00;24.00;;;;;35.21;36.90;97943.50;6304799;22;8844;-77
2021/03/31 11:04:39;;;;;;;;;31.25;30.00;;;;;35.16;36.78;97944.88;6307662;22;8791;-75
2021/03/31 11:07:07;;;;;;;;;22.00;22.00;;;;;35.10;36.79;97934.97;6304044;22;8802;-75
2021/03/31 11:09:39;;;;;;;;;27.25;26.00;;;;;35.09;37.10;97944.41;6306016;22;9531;-78
2021/03/31 11:12:08;;;;;;;;;30.00;28.75;;;;;35.07;37.17;97935.88;6304777;22;8798;-74
2021/03/31 11:14:37;;;;;;;;;27.50;27.50;;;;;34.99;37.51;97938.88;6302635;22;8806;-76
2021/03/31 11:17:07;;;;;;;;;31.00;30.75;;;;;34.98;37.48;97939.34;6303497;22;8916;-78
2021/03/31 11:27:45;;;;;;;;;34.00;32.00;;;;;34.75;37.42;97929.59;6305201;22;8835;-75
2021/03/31 11:30:14;;;;;;;;;29.50;29.50;;;;;34.72;37.81;97929.72;6306150;22;8795;-76
2021/03/31 11:32:45;;;;;;;;;29.75;27.75;;;;;34.65;37.97;97923.31;6306069;22;8799;-75
2021/03/31 11:35:14;;;;;;;;;29.50;29.50;;;;;34.66;37.40;97935.03;6304579;22;8806;-76
2021/03/31 11:37:42;;;;;;;;;30.25;28.75;;;;;34.62;37.76;97934.38;6304914;22;8783;-76
2021/03/31 11:40:10;;;;;;;;;30.50;30.00;;;;;34.61;37.81;97932.84;6305894;22;8845;-75
2021/03/31 11:42:39;;;;;;;;;29.25;28.25;;;;;34.59;37.59;97941.53;6304414;22;8795;-75
2021/03/31 11:45:08;;;;;;;;;29.75;29.75;;;;;34.55;38.13;97937.38;6304396;22;8874;-74
2021/03/31 11:47:36;;;;;;;;;31.75;30.50;;;;;34.49;38.11;97933.69;6304326;22;8805;-74
2021/03/31 11:50:05;;;;;;;;;32.00;30.00;;;;;34.48;37.93;97940.38;6304550;22;8787;-74
2021/03/31 11:52:33;;;;;;;;;31.00;29.75;;;;;34.45;37.95;97941.28;6304013;22;8910;-75
2021/03/31 11:55:02;;;;;;;;;32.25;28.75;;;;;34.40;37.95;97937.13;6302600;22;9313;-74
2021/03/31 11:57:30;;;;;;;;;27.00;27.00;;;;;34.40;38.16;97939.88;6303668;22;8924;-76
2021/03/31 11:59:59;;;;;;;;;29.50;28.50;;;;;34.38;37.56;97944.25;6304977;22;8783;-76
2021/03/31 12:02:29;;;;;;;;;28.75;28.75;;;;;34.35;38.06;97945.91;6304257;22;8803;-75
2021/03/31 12:04:58;;;;;;;;;33.00;31.25;;;;;34.28;38.15;97932.44;6303905;22;9007;-75
2021/03/31 12:07:27;;;;;;;;;24.50;24.50;;;;;34.32;37.83;97952.28;6303774;22;8779;-75
2021/03/31 12:09:57;;;;;;;;;29.50;28.50;;;;;34.30;38.17;97954.69;6303832;22;8799;-75
2021/03/31 12:12:26;;;;;;;;;29.25;29.25;;;;;34.27;37.96;97941.88;6301819;22;8784;-75
2021/03/31 12:14:54;;;;;;;;;32.75;31.75;;;;;34.21;38.04;97943.66;6304047;22;8891;-75
2021/03/31 12:17:22;;;;;;;;;29.25;29.25;;;;;34.23;38.29;97954.94;6304771;22;8799;-74
2021/03/31 12:19:50;;;;;;;;;32.75;29.50;;;;;34.14;38.72;97943.91;6304959;22;8815;-75
2021/03/31 12:22:19;;;;;;;;;35.75;33.00;;;;;34.16;38.39;97955.16;6304847;22;8791;-79
2021/03/31 12:24:48;;;;;;;;;28.50;28.50;;;;;34.12;38.73;97954.53;6305444;22;8807;-80
2021/03/31 12:27:22;;;;;;;;;34.00;31.50;;;;;34.08;38.96;97957.38;6304901;22;8831;-80
2021/03/31 12:29:51;;;;;;;;;29.25;29.25;;;;;34.00;38.63;97950.63;6278612;22;8896;-78